Terminal Aerodrome Forecast
Issued by NWS

Home | Current Version | Previous Version | Text Only | Print | Product List | Glossary On
Versions: 1 2 3 4 5 6 7 8 9 10 11 12 13 14
000
FTUS43 KDMX 302339
TAFFOD
TAF
KFOD 302339Z 0100/0124 06016G24KT 2SM -RA VCTS OVC009CB
     FM010200 05012G18KT 3SM -RA BR OVC010
     FM010700 04010KT 4SM BR VCSH OVC005
     FM011200 32012G19KT 5SM -RA OVC009
     FM011800 31016G26KT P6SM OVC012=

USA.gov is the U.S. government's official web portal to all federal, state and local government web resources and services.